Lake Park, FL (33403)

7:56 AM EDT on August 25, 2016 (GMT -0400)
Rybovich Boat Company | | Change Station

Elev 10 ft 26.75 °N, 80.05 °W | Updated 10 seconds ago

Light Rain
Light Rain
80.8 °F
Feels Like 88 °F
N
3.0
Wind Variable Wind from ESE
Gusts 6.0 mph

Today
High -- | Low -- °F
--% Chance of Precip.
Yesterday
High -- | Low -- °F
Precip. -- in
Pressure 30.00 in
Visibility 10.0 miles
Clouds Scattered Clouds 2200 ft
Mostly Cloudy 4500 ft
Mostly Cloudy 10000 ft
Heat Index 88 °F
Dew Point 77 °F
Humidity 90%
Rainfall 0.08 in
Snow Depth Not available.
6:56 AM 7:47 PM
Last Quarter, 46% visible
METAR KPBI 251153Z 05005KT 10SM -RA SCT022 BKN045 BKN100 27/25 A3000 RMK AO2 RAE37B39 TSE37 SLP158 CB DSNT NE E SE-S P0001 60050 70054 T02720250 10294 20261 51008 $
Pressure 30.00 in
Visibility 10.0 miles
Clouds Scattered Clouds 2200 ft
Mostly Cloudy 4500 ft
Mostly Cloudy 10000 ft
Heat Index 88 °F
Dew Point 77 °F
Humidity 90%
Rainfall 0.08 in
Snow Depth Not available.
6:56 AM 7:47 PM
Last Quarter, 46% visible
METAR KPBI 251153Z 05005KT 10SM -RA SCT022 BKN045 BKN100 27/25 A3000 RMK AO2 RAE37B39 TSE37 SLP158 CB DSNT NE E SE-S P0001 60050 70054 T02720250 10294 20261 51008 $

10-Day Weather Forecast

Almanac

Astronomy

Aug. 25, 2016 Rise Set
Actual Time
Civil Twilight
Nautical Twilight
Astronomical Twilight
Moon
Length of Visible Light
Length of Day
Tomorrow will be .
, % of the Moon is Illuminated

Today's Extremes

State Highs State Lows

Community

WunderPhotos

Upload Photos

1,934,821 photos uploaded!

WunderBlog® & News

Nearby

Air Quality

  Air Quality AQ Index Pollutant
Not available.

Snow Depth

Station Depth Elevation

Earthquake Activity

City Distance Mag. Time & Date
Minimum magnitude displayed is 2.5.

Coastal Water Temperatures

Place Temperature

Stations

Nearby Weather Stations

Station Location Temp. Windchill Dew Point Humidity Wind Precip. Elev Updated Type
                   

Watches & Warnings

There are currently no watches in effect.